Terminal Aerodrome Forecast
Issued by NWS

Home | Current Version | Previous Version | Text Only | Print | Product List | Glossary On
Versions: 1 2 3 4 5 6 7 8 9 10 11 12 13 14 15
000
FTUS45 KFGZ 251700
TAFGCN
TAF
KGCN 251729Z 2518/2618 22016G28KT P6SM BKN025 BKN040
      TEMPO 2518/2522 5SM -SHRA BKN015
     FM252200 23016G30KT P6SM VCSH SCT015 BKN025 OVC040
      TEMPO 2522/2524 3SM -SHRA BR BKN012
     FM260000 23012G22KT 3SM -RA BR SCT012 BKN015 OVC020
      TEMPO 2600/2604 2SM -SHRA BR BKN010
     FM260400 24008G15KT 2SM -SHRA BR OVC008
      TEMPO 2604/2608 1SM -SHRASN BR VV006=

USA.gov is the U.S. government's official web portal to all federal, state and local government web resources and services.